createdAt,value
2022-12-24T00:00:12.405Z,2.80
2022-12-24T00:02:39.519Z,2.80
2022-12-24T00:05:06.735Z,2.70
2022-12-24T00:07:33.608Z,2.80
2022-12-24T00:10:00.621Z,2.70
2022-12-24T00:12:27.544Z,2.80
2022-12-24T00:14:54.483Z,2.80
2022-12-24T00:17:21.348Z,2.80
2022-12-24T00:19:48.243Z,2.90
2022-12-24T00:22:15.498Z,2.90
2022-12-24T00:24:42.462Z,2.90
2022-12-24T00:27:09.429Z,2.80
2022-12-24T00:29:36.350Z,2.90
2022-12-24T00:32:03.288Z,2.80
2022-12-24T00:34:30.157Z,2.80
2022-12-24T00:36:56.993Z,2.80
2022-12-24T00:39:23.895Z,2.90
2022-12-24T00:41:50.694Z,2.90
2022-12-24T00:44:17.623Z,2.90
2022-12-24T00:46:44.577Z,2.90
2022-12-24T00:49:13.329Z,2.90
2022-12-24T00:51:40.487Z,2.80
2022-12-24T00:54:07.630Z,2.70
2022-12-24T00:56:35.066Z,2.60
2022-12-24T00:59:02.178Z,2.70
2022-12-24T01:01:29.481Z,2.70
2022-12-24T01:04:16.595Z,2.70
2022-12-24T01:06:43.928Z,2.60
2022-12-24T01:09:11.392Z,2.60
2022-12-24T01:11:38.334Z,2.60
2022-12-24T01:14:05.213Z,2.60
2022-12-24T01:16:32.419Z,2.60
2022-12-24T01:18:59.354Z,2.60
2022-12-24T01:21:26.276Z,2.60
2022-12-24T01:23:53.518Z,2.50
2022-12-24T01:26:20.501Z,2.60
2022-12-24T01:28:47.673Z,2.60
2022-12-24T01:31:18.040Z,2.50
2022-12-24T01:33:46.140Z,2.50
2022-12-24T01:36:14.174Z,2.50
2022-12-24T01:38:41.575Z,2.40
2022-12-24T01:41:33.811Z,2.30
2022-12-24T01:44:19.745Z,2.30
2022-12-24T01:46:47.635Z,2.30
2022-12-24T01:49:16.098Z,2.30
2022-12-24T01:51:54.709Z,2.20
2022-12-24T01:54:32.890Z,2.20
2022-12-24T01:57:07.915Z,2.20
2022-12-24T01:59:37.059Z,2.20
2022-12-24T02:02:04.886Z,2.30
2022-12-24T02:04:44.311Z,2.30
2022-12-24T02:07:11.171Z,2.30
2022-12-24T02:09:39.629Z,2.30
2022-12-24T02:12:07.730Z,2.30
2022-12-24T02:14:35.631Z,2.20
2022-12-24T02:17:21.460Z,2.20
2022-12-24T02:20:21.503Z,2.20
2022-12-24T02:23:09.376Z,2.20
2022-12-24T02:26:00.000Z,2.20
2022-12-24T02:28:45.017Z,2.20
2022-12-24T02:31:19.978Z,2.30
2022-12-24T02:33:53.658Z,2.30
2022-12-24T02:36:29.326Z,2.20
2022-12-24T02:39:01.416Z,2.30
2022-12-24T02:41:58.421Z,2.30
2022-12-24T02:44:28.895Z,2.30
2022-12-24T02:46:57.907Z,2.30
2022-12-24T02:49:25.016Z,2.20
2022-12-24T02:51:51.838Z,2.20
2022-12-24T02:54:18.940Z,2.10
2022-12-24T02:57:11.365Z,2.20
2022-12-24T02:59:56.953Z,2.20
2022-12-24T03:03:09.414Z,2.20
2022-12-24T03:05:42.510Z,2.10
2022-12-24T03:08:48.884Z,2.10
2022-12-24T03:11:16.295Z,2.20
2022-12-24T03:13:44.352Z,2.20
2022-12-24T03:16:19.403Z,2.10
2022-12-24T03:18:49.263Z,2.10
2022-12-24T03:21:35.742Z,2.10
2022-12-24T03:24:02.936Z,2.10
2022-12-24T03:26:32.393Z,2.10
2022-12-24T03:29:00.003Z,2.00
2022-12-24T03:31:27.004Z,2.10
2022-12-24T03:33:53.996Z,2.00
2022-12-24T03:36:20.872Z,2.00
2022-12-24T03:38:47.856Z,2.00
2022-12-24T03:41:14.754Z,1.90
2022-12-24T03:43:41.630Z,2.00
2022-12-24T03:46:09.314Z,1.90
2022-12-24T03:48:36.666Z,1.90
2022-12-24T03:51:04.707Z,1.90
2022-12-24T03:53:31.630Z,1.90
2022-12-24T03:55:58.616Z,2.00
2022-12-24T03:58:25.527Z,1.90
2022-12-24T04:00:53.923Z,1.90
2022-12-24T04:03:21.117Z,2.00
2022-12-24T04:05:48.101Z,2.00
2022-12-24T04:08:14.966Z,2.00
2022-12-24T04:10:41.853Z,2.00
2022-12-24T04:13:08.707Z,2.00
2022-12-24T04:15:35.592Z,1.90
2022-12-24T04:18:02.577Z,2.10
2022-12-24T04:20:29.435Z,2.00
2022-12-24T04:22:56.262Z,2.10
2022-12-24T04:25:23.235Z,2.10
2022-12-24T04:27:50.122Z,2.10
2022-12-24T04:30:17.079Z,2.00
2022-12-24T04:32:44.051Z,2.00
2022-12-24T04:35:10.911Z,2.00
2022-12-24T04:37:37.763Z,2.00
2022-12-24T04:40:05.112Z,2.00
2022-12-24T04:42:32.097Z,2.00
2022-12-24T04:44:59.012Z,2.00
2022-12-24T04:47:25.861Z,1.90
2022-12-24T04:49:53.329Z,1.90
2022-12-24T04:52:20.325Z,1.90
2022-12-24T04:54:47.144Z,1.90
2022-12-24T04:57:13.988Z,1.90
2022-12-24T04:59:40.814Z,1.80
2022-12-24T05:02:07.818Z,1.80
2022-12-24T05:04:34.756Z,1.80
2022-12-24T05:07:01.739Z,1.80
2022-12-24T05:09:28.573Z,1.70
2022-12-24T05:11:55.414Z,1.70
2022-12-24T05:14:22.323Z,1.70
2022-12-24T05:16:49.466Z,1.70
2022-12-24T05:19:16.395Z,1.70
2022-12-24T05:21:43.319Z,1.70
2022-12-24T05:24:31.727Z,1.70
2022-12-24T05:26:59.469Z,1.70
2022-12-24T05:29:26.492Z,1.70
2022-12-24T05:31:53.397Z,1.60
2022-12-24T05:34:20.282Z,1.60
2022-12-24T05:36:47.177Z,1.60
2022-12-24T05:39:16.863Z,1.60
2022-12-24T05:41:44.796Z,1.50
2022-12-24T05:44:11.751Z,1.50
2022-12-24T05:46:38.737Z,1.50
2022-12-24T05:49:05.806Z,1.40
2022-12-24T05:51:32.696Z,1.40
2022-12-24T05:53:59.541Z,1.30
2022-12-24T05:56:26.847Z,1.30
2022-12-24T05:58:54.932Z,1.40
2022-12-24T06:01:23.061Z,1.30
2022-12-24T06:03:50.769Z,1.30
2022-12-24T06:06:23.942Z,1.30
2022-12-24T06:08:52.415Z,1.30
2022-12-24T06:11:22.291Z,1.30
2022-12-24T06:13:49.614Z,1.30
2022-12-24T06:16:19.322Z,1.30
2022-12-24T06:18:46.816Z,1.30
2022-12-24T06:21:13.902Z,1.30
2022-12-24T06:23:43.384Z,1.20
2022-12-24T06:26:13.320Z,1.20
2022-12-24T06:28:40.737Z,1.20
2022-12-24T06:31:12.675Z,1.20
2022-12-24T06:33:39.801Z,1.10
2022-12-24T06:36:14.936Z,1.10
2022-12-24T06:38:44.242Z,1.20
2022-12-24T06:41:11.137Z,1.10
2022-12-24T06:43:38.125Z,1.10
2022-12-24T06:46:05.439Z,1.10
2022-12-24T06:48:32.512Z,1.10
2022-12-24T06:51:01.733Z,1.10
2022-12-24T06:53:28.607Z,1.10
2022-12-24T06:56:05.272Z,1.10
2022-12-24T06:58:33.685Z,1.10
2022-12-24T07:01:04.881Z,1.20
2022-12-24T07:03:32.776Z,1.10
2022-12-24T07:06:00.291Z,1.10
2022-12-24T07:08:27.575Z,1.10
2022-12-24T07:10:54.850Z,1.10
2022-12-24T07:13:22.072Z,1.10
2022-12-24T07:15:57.935Z,1.00
2022-12-24T07:18:24.875Z,1.00
2022-12-24T07:20:51.779Z,1.00
2022-12-24T07:23:20.278Z,1.00
2022-12-24T07:25:47.180Z,1.10
2022-12-24T07:28:14.026Z,1.10
2022-12-24T07:30:41.151Z,1.20
2022-12-24T07:33:08.553Z,1.30
2022-12-24T07:35:35.679Z,1.30
2022-12-24T07:38:03.197Z,1.40
2022-12-24T07:40:30.137Z,1.40
2022-12-24T07:42:57.028Z,1.40
2022-12-24T07:45:23.919Z,1.50
2022-12-24T07:47:50.837Z,1.50
2022-12-24T07:50:17.868Z,1.60
2022-12-24T07:52:44.834Z,1.60
2022-12-24T07:55:11.755Z,1.60
2022-12-24T07:57:38.655Z,1.60
2022-12-24T08:00:06.321Z,1.70
2022-12-24T08:02:33.433Z,1.70
2022-12-24T08:05:00.361Z,1.70
2022-12-24T08:07:27.199Z,1.60
2022-12-24T08:09:54.070Z,1.50
2022-12-24T08:12:20.935Z,1.60
2022-12-24T08:14:47.796Z,1.50
2022-12-24T08:17:14.614Z,1.70
2022-12-24T08:19:41.446Z,1.70
2022-12-24T08:22:08.341Z,1.70
2022-12-24T08:24:35.209Z,1.60
2022-12-24T08:27:02.181Z,1.70
2022-12-24T08:29:29.102Z,1.50
2022-12-24T08:31:56.019Z,1.50
2022-12-24T08:34:22.982Z,1.50
2022-12-24T08:36:49.959Z,1.50
2022-12-24T08:39:16.887Z,1.60
2022-12-24T08:41:43.810Z,1.60
2022-12-24T08:44:10.660Z,1.70
2022-12-24T08:46:37.595Z,1.60
2022-12-24T08:49:04.619Z,1.40
2022-12-24T08:51:31.706Z,1.60
2022-12-24T08:53:58.616Z,1.60
2022-12-24T08:56:25.795Z,1.60
2022-12-24T08:58:52.717Z,1.60
2022-12-24T09:01:21.149Z,1.60
2022-12-24T09:03:48.442Z,1.60
2022-12-24T09:06:16.170Z,1.50
2022-12-24T09:08:43.502Z,1.60
2022-12-24T09:11:15.411Z,1.80
2022-12-24T09:13:42.630Z,1.80
2022-12-24T09:16:09.948Z,1.80
2022-12-24T09:18:37.009Z,1.70
2022-12-24T09:21:11.402Z,1.70
2022-12-24T09:23:42.046Z,1.70
2022-12-24T09:26:25.927Z,1.80
2022-12-24T09:28:53.934Z,1.80
2022-12-24T09:31:21.912Z,1.80
2022-12-24T09:33:50.896Z,1.70
2022-12-24T09:36:18.647Z,1.80
2022-12-24T09:38:46.440Z,1.80
2022-12-24T09:41:42.211Z,1.90
2022-12-24T09:44:33.674Z,2.00
2022-12-24T09:47:08.265Z,2.00
2022-12-24T09:49:43.656Z,1.90
2022-12-24T09:52:15.180Z,1.90
2022-12-24T09:54:49.861Z,2.00
2022-12-24T09:57:35.867Z,2.00
2022-12-24T10:00:03.708Z,2.00
2022-12-24T10:02:32.445Z,2.00
2022-12-24T10:04:59.626Z,2.00
2022-12-24T10:07:47.659Z,2.20
2022-12-24T10:10:23.860Z,2.20
2022-12-24T10:12:56.691Z,2.20
2022-12-24T10:15:37.524Z,2.10
2022-12-24T10:18:22.281Z,2.10
2022-12-24T10:21:04.862Z,2.20
2022-12-24T10:23:48.041Z,2.20
2022-12-24T10:26:38.273Z,2.30
2022-12-24T10:29:19.075Z,2.40
2022-12-24T10:32:08.707Z,2.40
2022-12-24T10:34:51.663Z,2.40
2022-12-24T10:37:24.741Z,2.30
2022-12-24T10:39:52.613Z,2.40
2022-12-24T10:42:21.595Z,2.40
2022-12-24T10:44:53.902Z,2.40
2022-12-24T10:47:22.683Z,2.30
2022-12-24T10:49:58.327Z,2.40
2022-12-24T10:52:31.232Z,2.50
2022-12-24T10:55:11.980Z,2.50
2022-12-24T10:57:40.646Z,2.60
2022-12-24T11:00:19.466Z,2.60
2022-12-24T11:02:48.376Z,2.60
2022-12-24T11:05:59.135Z,2.60
2022-12-24T11:08:26.535Z,2.60
2022-12-24T11:11:02.685Z,2.50
2022-12-24T11:13:39.849Z,2.60
2022-12-24T11:16:33.424Z,2.70
2022-12-24T11:19:03.132Z,2.60
2022-12-24T11:21:34.565Z,2.60
2022-12-24T11:24:28.112Z,2.60
2022-12-24T11:26:57.086Z,2.60
2022-12-24T11:29:28.683Z,2.50
2022-12-24T11:32:21.434Z,2.50
2022-12-24T11:34:48.994Z,2.40
2022-12-24T11:37:21.030Z,2.50
2022-12-24T11:39:58.367Z,2.40
2022-12-24T11:42:40.732Z,2.50
2022-12-24T11:45:24.714Z,2.50
2022-12-24T11:47:55.962Z,2.60
2022-12-24T11:50:38.292Z,2.60
2022-12-24T11:53:34.228Z,2.70
2022-12-24T11:56:06.338Z,2.60
2022-12-24T11:58:45.331Z,2.60
2022-12-24T12:01:21.874Z,2.60
2022-12-24T12:04:00.857Z,2.60
2022-12-24T12:06:33.782Z,2.50
2022-12-24T12:09:06.301Z,2.40
2022-12-24T12:11:35.040Z,2.40
2022-12-24T12:14:03.995Z,2.40
2022-12-24T12:17:01.228Z,2.40
2022-12-24T12:19:45.650Z,2.40
2022-12-24T12:22:35.993Z,2.30
2022-12-24T12:25:04.568Z,2.30
2022-12-24T12:27:37.791Z,2.30
2022-12-24T12:30:17.971Z,2.30
2022-12-24T12:33:04.756Z,2.20
2022-12-24T12:35:38.399Z,2.20
2022-12-24T12:38:23.109Z,2.10
2022-12-24T12:40:55.942Z,2.10
2022-12-24T12:43:28.903Z,2.10
2022-12-24T12:46:04.078Z,2.20
2022-12-24T12:48:48.588Z,2.30
2022-12-24T12:51:21.482Z,2.30
2022-12-24T12:54:05.902Z,2.30
2022-12-24T12:56:39.860Z,2.30
2022-12-24T12:59:35.968Z,2.20
2022-12-24T13:02:28.591Z,2.20
2022-12-24T13:05:01.262Z,2.20
2022-12-24T13:07:56.737Z,2.20
2022-12-24T13:10:29.323Z,2.20
2022-12-24T13:13:05.055Z,2.10
2022-12-24T13:16:06.514Z,2.10
2022-12-24T13:18:58.936Z,2.10
2022-12-24T13:21:28.735Z,2.20
2022-12-24T13:24:19.548Z,2.10
2022-12-24T13:27:32.042Z,2.10
2022-12-24T13:30:07.247Z,2.00
2022-12-24T13:33:03.943Z,2.00
2022-12-24T13:35:38.317Z,2.00
2022-12-24T13:38:44.651Z,2.00
2022-12-24T13:41:40.630Z,1.90
2022-12-24T13:44:17.515Z,2.00
2022-12-24T13:47:25.319Z,1.90
2022-12-24T13:50:00.090Z,1.90
2022-12-24T13:52:30.581Z,1.90
2022-12-24T13:54:57.384Z,1.90
2022-12-24T13:57:52.040Z,1.80
2022-12-24T14:00:22.024Z,1.80
2022-12-24T14:03:14.679Z,1.80
2022-12-24T14:05:44.900Z,1.70
2022-12-24T14:08:23.684Z,1.70
2022-12-24T14:11:10.934Z,1.70
2022-12-24T14:13:40.937Z,1.70
2022-12-24T14:16:09.595Z,1.60
2022-12-24T14:18:40.852Z,1.60
2022-12-24T14:21:15.602Z,1.70
2022-12-24T14:24:05.313Z,1.60
2022-12-24T14:26:36.082Z,1.60
2022-12-24T14:29:17.395Z,1.60
2022-12-24T14:31:54.713Z,1.60
2022-12-24T14:34:21.757Z,1.50
2022-12-24T14:36:50.243Z,1.50
2022-12-24T14:39:22.964Z,1.40
2022-12-24T14:42:22.770Z,1.50
2022-12-24T14:45:17.342Z,1.50
2022-12-24T14:48:14.725Z,1.50
2022-12-24T14:51:03.383Z,1.40
2022-12-24T14:54:04.998Z,1.40
2022-12-24T14:56:31.939Z,1.40
2022-12-24T14:59:04.649Z,1.40
2022-12-24T15:01:34.415Z,1.30
2022-12-24T15:04:10.699Z,1.30
2022-12-24T15:06:40.998Z,1.30
2022-12-24T15:09:24.270Z,1.30
2022-12-24T15:11:55.563Z,1.20
2022-12-24T15:14:25.373Z,1.20
2022-12-24T15:17:07.517Z,1.20
2022-12-24T15:19:47.830Z,1.20
2022-12-24T15:22:31.386Z,1.10
2022-12-24T15:24:58.305Z,1.10
2022-12-24T15:27:32.145Z,1.00
2022-12-24T15:29:59.137Z,1.10
2022-12-24T15:32:26.059Z,1.00
2022-12-24T15:34:54.944Z,1.00
2022-12-24T15:37:21.786Z,1.10
2022-12-24T15:39:59.687Z,0.90
2022-12-24T15:42:28.480Z,1.00
2022-12-24T15:44:58.332Z,1.00
2022-12-24T15:47:39.942Z,0.90
2022-12-24T15:50:18.719Z,0.90
2022-12-24T15:52:46.710Z,0.80
2022-12-24T15:55:28.660Z,0.70
2022-12-24T15:57:56.202Z,0.70
2022-12-24T16:00:31.091Z,0.70
2022-12-24T16:03:12.014Z,0.70
2022-12-24T16:05:40.172Z,0.80
2022-12-24T16:08:14.261Z,0.80
2022-12-24T16:10:54.190Z,0.70
2022-12-24T16:13:25.213Z,0.70
2022-12-24T16:16:00.627Z,0.70
2022-12-24T16:18:33.235Z,0.80
2022-12-24T16:21:00.407Z,0.80
2022-12-24T16:23:34.470Z,0.80
2022-12-24T16:26:01.427Z,0.80
2022-12-24T16:28:28.403Z,0.80
2022-12-24T16:30:56.477Z,0.70
2022-12-24T16:33:26.223Z,0.70
2022-12-24T16:35:53.191Z,0.60
2022-12-24T16:38:20.015Z,0.70
2022-12-24T16:40:47.219Z,0.60
2022-12-24T16:43:32.739Z,0.70
2022-12-24T16:46:05.712Z,0.70
2022-12-24T16:48:36.380Z,0.60
2022-12-24T16:51:03.813Z,0.70
2022-12-24T16:53:30.652Z,0.60
2022-12-24T16:55:57.510Z,0.60
2022-12-24T16:58:24.367Z,0.50
2022-12-24T17:00:51.261Z,0.50
2022-12-24T17:03:18.186Z,0.50
2022-12-24T17:05:45.390Z,0.40
2022-12-24T17:08:13.293Z,0.40
2022-12-24T17:10:40.872Z,0.40
2022-12-24T17:13:07.853Z,0.40
2022-12-24T17:15:34.844Z,0.30
2022-12-24T17:18:01.726Z,0.40
2022-12-24T17:20:28.665Z,0.30
2022-12-24T17:22:55.538Z,0.30
2022-12-24T17:25:22.373Z,0.30
2022-12-24T17:27:49.229Z,0.20
2022-12-24T17:30:16.366Z,0.30
2022-12-24T17:32:43.337Z,0.30
2022-12-24T17:35:10.753Z,0.30
2022-12-24T17:37:37.759Z,0.20
2022-12-24T17:40:05.181Z,0.30
2022-12-24T17:42:32.054Z,0.40
2022-12-24T17:44:58.954Z,0.40
2022-12-24T17:47:25.774Z,0.40
2022-12-24T17:49:52.646Z,0.40
2022-12-24T17:52:19.579Z,0.40
2022-12-24T17:54:46.433Z,0.30
2022-12-24T17:57:13.461Z,0.30
2022-12-24T17:59:40.333Z,0.30
2022-12-24T18:02:07.286Z,0.40
2022-12-24T18:04:34.190Z,0.40
2022-12-24T18:07:03.196Z,0.40
2022-12-24T18:09:30.396Z,0.30
2022-12-24T18:11:57.302Z,0.30
2022-12-24T18:14:24.124Z,0.30
2022-12-24T18:16:51.092Z,0.40
2022-12-24T18:19:18.105Z,0.30
2022-12-24T18:21:45.186Z,0.30
2022-12-24T18:24:13.033Z,0.40
2022-12-24T18:26:40.441Z,0.30
2022-12-24T18:29:08.847Z,0.30
2022-12-24T18:31:36.503Z,0.30
2022-12-24T18:34:05.555Z,0.30
2022-12-24T18:36:32.560Z,0.30
2022-12-24T18:38:59.679Z,0.40
2022-12-24T18:41:30.007Z,0.40
2022-12-24T18:43:58.104Z,0.40
2022-12-24T18:46:28.154Z,0.40
2022-12-24T18:48:55.863Z,0.40
2022-12-24T18:51:24.222Z,0.30
2022-12-24T18:53:51.653Z,0.30
2022-12-24T18:56:24.259Z,0.30
2022-12-24T18:58:56.207Z,0.20
2022-12-24T19:01:29.496Z,0.20
2022-12-24T19:03:58.095Z,0.20
2022-12-24T19:06:25.393Z,0.20
2022-12-24T19:09:01.680Z,0.10
2022-12-24T19:11:33.505Z,0.10
2022-12-24T19:14:00.985Z,0.20
2022-12-24T19:16:29.603Z,0.00
2022-12-24T19:18:57.270Z,0.00
2022-12-24T19:21:24.226Z,0.00
2022-12-24T19:23:51.890Z,0.00
2022-12-24T19:26:20.555Z,0.00
2022-12-24T19:28:47.693Z,0.00
2022-12-24T19:31:21.966Z,-0.10
2022-12-24T19:33:51.286Z,-0.10
2022-12-24T19:36:21.482Z,-0.10
2022-12-24T19:38:48.501Z,-0.10
2022-12-24T19:41:20.753Z,-0.20
2022-12-24T19:43:50.293Z,-0.20
2022-12-24T19:46:19.655Z,-0.20
2022-12-24T19:48:56.281Z,-0.30
2022-12-24T19:51:24.364Z,-0.30
2022-12-24T19:53:52.485Z,-0.30
2022-12-24T19:56:21.096Z,-0.30
2022-12-24T19:58:48.551Z,-0.30
2022-12-24T20:01:23.850Z,-0.30
2022-12-24T20:03:52.291Z,-0.30
2022-12-24T20:06:21.854Z,-0.30
2022-12-24T20:08:48.896Z,-0.30
2022-12-24T20:11:18.796Z,-0.30
2022-12-24T20:13:46.240Z,-0.30
2022-12-24T20:16:19.838Z,-0.20
2022-12-24T20:19:12.495Z,-0.30
2022-12-24T20:21:39.470Z,-0.30
2022-12-24T20:24:06.872Z,-0.40
2022-12-24T20:26:34.321Z,-0.40
2022-12-24T20:29:06.224Z,-0.40
2022-12-24T20:31:33.786Z,-0.30
2022-12-24T20:34:01.994Z,-0.40
2022-12-24T20:36:31.152Z,-0.30
2022-12-24T20:38:59.187Z,-0.30
2022-12-24T20:41:28.215Z,-0.40
2022-12-24T20:43:57.086Z,-0.40
2022-12-24T20:46:24.346Z,-0.40
2022-12-24T20:48:51.655Z,-0.40
2022-12-24T20:51:24.680Z,-0.50
2022-12-24T20:53:54.305Z,-0.50
2022-12-24T20:56:21.570Z,-0.40
2022-12-24T20:58:48.714Z,-0.50
2022-12-24T21:01:18.433Z,-0.60
2022-12-24T21:03:45.546Z,-0.60
2022-12-24T21:06:12.927Z,-0.60
2022-12-24T21:08:40.102Z,-0.50
2022-12-24T21:11:25.651Z,-0.60
2022-12-24T21:13:52.599Z,-0.70
2022-12-24T21:16:19.614Z,-0.70
2022-12-24T21:18:46.646Z,-0.60
2022-12-24T21:21:13.525Z,-0.60
2022-12-24T21:23:40.391Z,-0.70
2022-12-24T21:26:07.355Z,-0.70
2022-12-24T21:28:34.173Z,-0.70
2022-12-24T21:31:01.222Z,-0.50
2022-12-24T21:33:30.955Z,-0.70
2022-12-24T21:36:01.652Z,-0.70
2022-12-24T21:38:28.690Z,-0.80
2022-12-24T21:41:07.712Z,-0.80
2022-12-24T21:43:35.901Z,-0.80
2022-12-24T21:46:10.734Z,-0.80
2022-12-24T21:48:57.218Z,-0.70
2022-12-24T21:51:25.928Z,-0.80
2022-12-24T21:54:12.054Z,-0.80
2022-12-24T21:56:57.588Z,-0.80
2022-12-24T21:59:27.131Z,-0.80
2022-12-24T22:01:55.462Z,-0.80
2022-12-24T22:04:22.743Z,-0.90
2022-12-24T22:07:08.268Z,-0.80
2022-12-24T22:09:53.784Z,-0.80
2022-12-24T22:12:20.653Z,-0.80
2022-12-24T22:14:47.714Z,-0.80
2022-12-24T22:17:18.230Z,-0.90
2022-12-24T22:19:48.155Z,-0.80
2022-12-24T22:22:15.135Z,-0.90
2022-12-24T22:24:41.987Z,-0.90
2022-12-24T22:27:08.821Z,-0.90
2022-12-24T22:29:35.788Z,-1.00
2022-12-24T22:32:02.663Z,-1.00
2022-12-24T22:34:29.749Z,-1.00
2022-12-24T22:36:56.589Z,-0.90
2022-12-24T22:39:23.515Z,-1.00
2022-12-24T22:41:53.014Z,-1.00
2022-12-24T22:44:19.924Z,-1.00
2022-12-24T22:46:46.922Z,-1.00
2022-12-24T22:49:14.142Z,-0.90
2022-12-24T22:51:41.161Z,-0.90
2022-12-24T22:54:08.157Z,-1.00
2022-12-24T22:56:40.758Z,-1.00
2022-12-24T22:59:09.712Z,-1.00
2022-12-24T23:01:38.800Z,-1.00
2022-12-24T23:04:07.575Z,-1.00
2022-12-24T23:06:35.434Z,-1.00
2022-12-24T23:09:03.891Z,-0.90
2022-12-24T23:11:31.074Z,-0.90
2022-12-24T23:14:16.348Z,-1.00
2022-12-24T23:16:43.247Z,-0.90
2022-12-24T23:19:10.897Z,-0.90
2022-12-24T23:21:38.476Z,-0.80
2022-12-24T23:24:06.227Z,-0.90
2022-12-24T23:26:33.016Z,-0.90
2022-12-24T23:28:59.915Z,-0.90
2022-12-24T23:31:27.188Z,-0.90
2022-12-24T23:33:54.265Z,-0.90
2022-12-24T23:36:21.295Z,-0.90
2022-12-24T23:38:48.668Z,-1.00
2022-12-24T23:41:17.660Z,-1.10
2022-12-24T23:43:44.788Z,-1.10
2022-12-24T23:46:17.096Z,-1.00
2022-12-24T23:48:45.991Z,-1.00
2022-12-24T23:51:16.795Z,-1.00
2022-12-24T23:53:43.845Z,-1.00
2022-12-24T23:56:13.495Z,-1.00
2022-12-24T23:58:41.662Z,-1.00
